Time;durP1;ratioP1;P1;durP2;ratioP2;P2;SDS_P1;SDS_P2;PMS_P1;PMS_P2;Temp;Humidity;BMP_temperature;BMP_pressure;BME280_temperature;BME280_humidity;BME280_pressure;Samples;Min_cycle;Max_cycle;Signal;HPM_P1;HPM_P2
2021/10/10 00:00:39;;;;;;;61.40;38.40;;;;;;;5.91;60.80;101850.84;115009;1191;138192;-73
2021/10/10 00:03:26;;;;;;;64.00;39.80;;;;;;;5.88;60.78;101847.85;115190;1190;108509;-74
2021/10/10 00:06:14;;;;;;;62.60;39.80;;;;;;;5.88;60.89;101845.27;115068;1192;138597;-74
2021/10/10 00:09:03;;;;;;;61.70;39.50;;;;;;;5.89;60.77;101845.27;115111;1192;95139;-73
2021/10/10 00:11:50;;;;;;;66.00;40.60;;;;;;;5.89;60.98;101848.73;114995;1192;138915;-71
2021/10/10 00:14:37;;;;;;;;;;;;;;;5.85;60.83;101843.50;115255;1192;108757;-72
2021/10/10 00:17:25;;;;;;;71.70;43.40;;;;;;;5.81;60.92;101841.38;115153;1192;108877;-71
2021/10/10 00:20:12;;;;;;;72.50;44.00;;;;;;;5.77;61.07;101840.82;115041;1192;138201;-72
2021/10/10 00:22:59;;;;;;;69.80;44.50;;;;;;;5.74;61.29;101843.35;115199;1191;94366;-72
2021/10/10 00:25:47;;;;;;;75.20;46.70;;;;;;;5.72;61.17;101839.70;115062;1184;137732;-72
2021/10/10 00:28:34;;;;;;;77.20;47.50;;;;;;;5.73;61.30;101841.95;115179;1192;108469;-72
2021/10/10 00:31:21;;;;;;;72.80;46.30;;;;;;;5.69;61.27;101845.01;115063;1192;138419;-72
2021/10/10 00:34:08;;;;;;;79.60;48.80;;;;;;;5.64;61.44;101844.10;115204;1191;94175;-72
2021/10/10 00:36:55;;;;;;;;;;;;;;;5.59;61.58;101840.41;115068;1192;137454;-72
2021/10/10 00:39:42;;;;;;;85.00;49.50;;;;;;;5.54;61.65;101840.14;115192;1190;111320;-72
2021/10/10 00:42:29;;;;;;;86.90;50.70;;;;;;;5.46;61.65;101839.36;114995;1192;138351;-72
2021/10/10 00:45:17;;;;;;;77.60;48.10;;;;;;;5.43;61.91;101838.11;115162;1192;108737;-72
2021/10/10 00:48:05;;;;;;;82.90;49.20;;;;;;;5.41;61.90;101840.34;115043;1192;138483;-72
2021/10/10 00:50:52;;;;;;;77.40;47.90;;;;;;;5.42;61.88;101840.17;115164;1192;94133;-72
2021/10/10 00:53:40;;;;;;;;;;;;;;;5.41;61.88;101837.40;115211;1191;110224;-72
2021/10/10 00:56:28;;;;;;;80.70;51.10;;;;;;;5.38;62.16;101837.52;115007;1191;123610;-72
2021/10/10 00:59:22;;;;;;;80.70;51.20;;;;;;;5.33;61.99;101837.80;115134;1192;108441;-71
2021/10/10 01:02:09;;;;;;;85.70;50.20;;;;;;;5.31;62.18;101835.51;115030;1191;138151;-72
2021/10/10 01:04:56;;;;;;;;;;;;;;;5.28;62.17;101834.61;115209;1190;94264;-72
2021/10/10 01:07:44;;;;;;;82.70;50.80;;;;;;;5.23;62.24;101831.61;115011;1192;124191;-72
2021/10/10 01:10:32;;;;;;;85.20;53.00;;;;;;;5.19;62.36;101827.21;115163;1192;107493;-71
2021/10/10 01:13:19;;;;;;;88.40;52.90;;;;;;;5.18;62.35;101829.09;115032;1192;137656;-72
2021/10/10 01:16:07;;;;;;;89.40;52.90;;;;;;;5.15;62.44;101826.98;115166;1191;94496;-72
2021/10/10 01:18:58;;;;;;;82.20;52.10;;;;;;;5.10;62.65;101821.75;114984;1184;137080;-71
2021/10/10 01:21:46;;;;;;;81.90;48.60;;;;;;;5.06;62.65;101822.89;115152;1191;110787;-72
2021/10/10 01:24:33;;;;;;;80.50;48.70;;;;;;;5.01;62.66;101819.00;115056;1190;138225;-72
2021/10/10 01:27:20;;;;;;;90.10;51.30;;;;;;;5.02;62.76;101820.39;115096;1191;108765;-72
2021/10/10 01:30:08;;;;;;;84.20;49.40;;;;;;;4.98;62.94;101816.89;115095;1190;138008;-71
2021/10/10 01:32:55;;;;;;;90.20;51.30;;;;;;;4.95;62.84;101814.95;115152;1191;94441;-72
2021/10/10 01:35:42;;;;;;;84.30;48.50;;;;;;;4.90;63.05;101812.63;115174;1191;111044;-72
2021/10/10 01:38:29;;;;;;;79.80;47.80;;;;;;;4.84;63.13;101813.06;115033;1192;138011;-72
2021/10/10 01:41:16;;;;;;;80.60;49.60;;;;;;;4.80;63.16;101813.85;115169;1191;108457;-71
2021/10/10 01:44:03;;;;;;;;;;;;;;;4.79;63.32;101812.29;115095;1190;138415;-72
2021/10/10 01:46:50;;;;;;;83.30;50.10;;;;;;;4.76;63.33;101812.58;115131;1191;94659;-72
2021/10/10 01:49:40;;;;;;;78.10;47.90;;;;;;;4.72;63.40;101810.11;115067;1192;137747;-72
2021/10/10 01:52:27;;;;;;;77.20;47.10;;;;;;;4.67;63.37;101809.84;115172;1191;107536;-72
2021/10/10 01:55:14;;;;;;;84.00;47.60;;;;;;;4.62;63.51;101808.73;114980;1192;137921;-72
2021/10/10 01:58:01;;;;;;;78.50;47.30;;;;;;;4.59;63.49;101810.40;115127;1192;94359;-72
2021/10/10 02:00:48;;;;;;;79.60;47.00;;;;;;;4.58;63.70;101809.70;115049;1192;137358;-72
2021/10/10 02:03:35;;;;;;;73.90;44.40;;;;;;;4.55;63.60;101808.43;115194;1191;110924;-72
2021/10/10 02:06:22;;;;;;;78.60;46.80;;;;;;;4.50;63.68;101805.44;115052;1191;137393;-72
2021/10/10 02:09:09;;;;;;;74.40;44.60;;;;;;;4.46;63.78;101803.43;115134;1192;107608;-72
2021/10/10 02:11:56;;;;;;;69.70;43.50;;;;;;;4.40;63.64;101803.69;115198;1192;94326;-72
2021/10/10 02:14:43;;;;;;;74.90;46.30;;;;;;;4.37;63.65;101800.88;115019;1192;137754;-72
2021/10/10 02:17:30;;;;;;;77.70;48.10;;;;;;;4.35;63.89;101799.13;114887;1193;109835;-72
2021/10/10 02:20:18;;;;;;;75.80;47.00;;;;;;;4.34;63.81;101801.69;115047;1192;137098;-72
2021/10/10 02:23:05;;;;;;;72.80;44.80;;;;;;;4.29;63.74;101801.06;115161;1191;106173;-72
2021/10/10 02:25:53;;;;;;;73.70;45.00;;;;;;;4.27;63.98;101799.65;115008;1192;137323;-72
2021/10/10 02:28:40;;;;;;;74.50;45.60;;;;;;;4.24;64.19;101797.18;115087;1192;94137;-72
2021/10/10 02:31:27;;;;;;;74.90;46.00;;;;;;;4.22;64.37;101797.85;115134;1192;137645;-72
2021/10/10 02:34:15;;;;;;;72.80;44.90;;;;;;;4.24;64.27;101798.91;115296;1191;108506;-71
2021/10/10 02:37:02;;;;;;;74.20;44.90;;;;;;;4.24;64.37;101796.34;115090;1192;138030;-72
2021/10/10 02:39:49;;;;;;;75.10;47.10;;;;;;;4.25;64.35;101792.73;115240;1191;94771;-72
2021/10/10 02:42:36;;;;;;;71.20;46.40;;;;;;;4.24;64.35;101791.70;115074;1192;138916;-72
2021/10/10 02:45:22;;;;;;;75.00;45.30;;;;;;;4.23;64.40;101788.23;115242;1191;111001;-73
2021/10/10 02:48:09;;;;;;;72.40;41.30;;;;;;;4.20;64.33;101788.35;115255;1192;107526;-72
2021/10/10 02:50:56;;;;;;;72.00;44.50;;;;;;;4.22;64.58;101788.90;115169;1191;137363;-72
2021/10/10 02:53:43;;;;;;;72.20;43.30;;;;;;;4.25;64.27;101786.37;115236;1192;94395;-71
2021/10/10 02:56:30;;;;;;;73.40;44.00;;;;;;;4.29;64.35;101788.66;115020;1191;137149;-72
2021/10/10 02:59:17;;;;;;;69.20;42.80;;;;;;;4.31;64.46;101785.09;114502;1191;108740;-72
2021/10/10 03:03:05;;;;;;;70.50;41.90;;;;;;;4.30;64.29;101783.68;113818;1181;137518;-80
2021/10/10 03:06:54;;;;;;;67.80;41.20;;;;;;;4.25;64.33;101782.74;112898;1196;108919;-80
2021/10/10 03:11:00;;;;;;;66.50;40.70;;;;;;;4.23;64.22;101783.41;112440;1201;96158;-81
2021/10/10 03:15:01;;;;;;;67.10;41.60;;;;;;;4.17;64.22;101778.48;112217;1202;137077;-81
2021/10/10 03:19:33;;;;;;;66.70;38.80;;;;;;;4.10;64.33;101771.80;112332;1203;109737;-81
2021/10/10 03:23:55;;;;;;;65.80;38.60;;;;;;;4.06;64.44;101772.41;113539;1206;110126;-81
2021/10/10 03:28:00;;;;;;;65.80;39.90;;;;;;;4.04;64.36;101768.41;113197;1209;139203;-81
2021/10/10 03:43:23;;;;;;;66.50;38.60;;;;;;;4.03;64.48;101759.45;111630;1209;636468;-78
2021/10/10 03:47:32;;;;;;;66.70;38.20;;;;;;;4.01;64.43;101754.25;112501;1198;137222;-78
2021/10/10 03:51:40;;;;;;;53.40;34.50;;;;;;;3.98;64.40;101753.86;112547;1200;137178;-79
2021/10/10 04:04:35;;;;;;;59.90;34.30;;;;;;;4.01;64.35;101743.93;111685;1209;136859;-79
2021/10/10 04:08:43;;;;;;;49.10;30.40;;;;;;;4.01;64.29;101740.31;111093;1216;94172;-79
2021/10/10 04:32:36;;;;;;;45.00;27.90;;;;;;;4.16;63.65;101741.45;112126;1206;105937;-79
2021/10/10 04:37:08;;;;;;;43.80;26.10;;;;;;;4.25;63.52;101739.88;111793;1209;107561;-79
2021/10/10 04:45:34;;;;;;;41.70;24.80;;;;;;;4.37;63.07;101737.69;111422;1218;94274;-79
2021/10/10 04:49:40;;;;;;;38.30;25.50;;;;;;;4.39;63.00;101735.98;111389;1218;94089;-80
2021/10/10 04:53:06;;;;;;;;;;;;;;;;;;;;;
2021/10/10 04:57:36;;;;;;;42.20;26.60;;;;;;;4.50;62.79;101737.05;111023;1222;109636;-77
2021/10/10 05:01:43;;;;;;;37.40;23.30;;;;;;;4.56;62.51;101735.94;110576;1222;137585;-79
2021/10/10 05:05:48;;;;;;;40.30;25.20;;;;;;;4.62;62.35;101736.54;110611;1222;137490;-78
2021/10/10 05:09:54;;;;;;;33.30;21.70;;;;;;;4.68;62.07;101733.36;110966;1221;94883;-79
2021/10/10 05:18:06;;;;;;;37.50;22.70;;;;;;;4.96;61.49;101733.44;110920;1219;137565;-78
2021/10/10 05:22:11;;;;;;;32.90;20.80;;;;;;;5.21;61.13;101732.94;110905;1216;109918;-79
2021/10/10 05:26:17;;;;;;;30.40;16.90;;;;;;;5.47;60.63;101731.55;110762;1222;136994;-78
2021/10/10 05:34:29;;;;;;;32.80;20.50;;;;;;;6.13;59.68;101726.27;110722;1222;110463;-79
2021/10/10 05:38:35;;;;;;;34.30;20.40;;;;;;;6.57;59.04;101722.69;110292;1223;137124;-80
2021/10/10 05:42:40;;;;;;;30.10;18.70;;;;;;;7.36;58.13;101717.45;110504;1225;137395;-78
2021/10/10 05:50:05;;;;;;;26.60;18.50;;;;;;;9.76;55.56;101708.36;111402;1209;635535;-79
2021/10/10 05:54:25;;;;;;;;;;;;;;;;;;;;;
2021/10/10 05:58:22;;;;;;;25.20;17.20;;;;;;;10.84;52.11;101705.30;112756;1198;95274;-80
2021/10/10 06:02:30;;;;;;;26.40;17.90;;;;;;;11.64;50.46;101700.72;112552;1198;136602;-80
2021/10/10 06:06:38;;;;;;;24.00;17.10;;;;;;;12.44;48.29;101703.71;112342;1201;137400;-79
2021/10/10 06:11:12;;;;;;;23.10;14.60;;;;;;;13.19;45.93;101702.73;111791;1207;107173;-80
2021/10/10 06:15:18;;;;;;;18.80;14.20;;;;;;;14.03;43.47;101707.94;111832;1211;95018;-80
2021/10/10 06:19:24;;;;;;;14.90;11.70;;;;;;;15.00;40.99;101701.30;111322;1214;137264;-78
2021/10/10 06:23:30;;;;;;;14.10;10.90;;;;;;;16.15;40.53;101695.06;111126;1217;108975;-80
2021/10/10 06:27:36;;;;;;;15.80;10.80;;;;;;;17.92;38.77;101690.15;110784;1220;137559;-78
2021/10/10 06:46:07;;;;;;;13.90;10.50;;;;;;;26.63;29.36;101661.23;112219;1201;136606;-80
2021/10/10 06:49:55;;;;;;;;;;;;;;;;;;;;;
2021/10/10 06:53:37;;;;;;;15.40;10.30;;;;;;;27.93;27.03;101660.47;111792;1212;107119;-80
2021/10/10 06:57:43;;;;;;;;;;;;;;;;;;;;;
2021/10/10 07:01:40;;;;;;;;;;;;;;;;;;;;;
2021/10/10 07:05:42;;;;;;;;;;;;;;;;;;;;;
2021/10/10 07:09:36;;;;;;;15.00;12.50;;;;;;;30.58;23.73;101652.84;111573;1209;635625;-81
2021/10/10 07:13:44;;;;;;;13.60;12.10;;;;;;;31.06;22.86;101644.91;113127;1195;94208;-82
2021/10/10 07:17:59;;;;;;;17.20;11.80;;;;;;;31.69;22.25;101645.67;112707;1200;94106;-79
2021/10/10 07:22:32;;;;;;;13.90;11.90;;;;;;;32.26;21.74;101643.33;112216;1203;136824;-79
2021/10/10 07:26:02;;;;;;;14.50;12.10;;;;;;;32.73;20.81;101641.88;112274;1202;108183;-80
2021/10/10 07:30:01;;;;;;;;;;;;;;;;;;;;;
2021/10/10 07:33:59;;;;;;;;;;;;;;;;;;;;;
2021/10/10 07:37:48;;;;;;;;;;;;;;;;;;;;;
2021/10/10 07:41:27;;;;;;;;;;;;;;;33.23;18.92;101644.38;112242;1203;136559;-80
2021/10/10 07:45:07;;;;;;;;;;;;;;;;;;;;;
2021/10/10 07:48:56;;;;;;;10.40;8.30;;;;;;;33.45;17.56;101647.63;112200;1206;98909;-80
2021/10/10 07:53:18;;;;;;;12.70;7.60;;;;;;;33.40;16.63;101649.44;113194;1207;137829;-80
2021/10/10 07:57:17;;;;;;;15.40;7.70;;;;;;;32.79;16.26;101649.24;112010;1208;94866;-79
2021/10/10 08:00:45;;;;;;;16.10;8.10;;;;;;;32.09;16.19;101649.64;112309;1205;109529;-80
2021/10/10 08:04:23;;;;;;;16.00;8.70;;;;;;;31.50;16.47;101652.73;112107;1206;137268;-81
2021/10/10 08:07:53;;;;;;;12.20;8.20;;;;;;;30.86;16.48;101652.92;112161;1205;110017;-81
2021/10/10 08:11:35;;;;;;;10.80;7.80;;;;;;;30.61;16.39;101651.88;112097;1201;137090;-80
2021/10/10 08:16:03;;;;;;;10.10;8.20;;;;;;;29.97;16.79;101649.75;112306;1203;95037;-80
2021/10/10 08:19:54;;;;;;;;;;;;;;;;;;;;;
2021/10/10 08:24:30;;;;;;;11.70;8.40;;;;;;;29.17;16.50;101645.66;111838;1207;137194;-80
2021/10/10 08:28:21;;;;;;;;;;;;;;;;;;;;;
2021/10/10 08:31:50;;;;;;;14.00;7.80;;;;;;;28.48;16.86;101642.23;113296;1207;93251;-80
2021/10/10 08:35:21;;;;;;;11.60;8.70;;;;;;;28.14;16.99;101647.90;113383;1205;137807;-80
2021/10/10 08:39:53;;;;;;;9.90;7.40;;;;;;;27.73;16.97;101645.69;113512;1205;108557;-80
2021/10/10 08:44:02;;;;;;;12.90;9.30;;;;;;;27.49;17.35;101643.17;113152;1208;137537;-80
2021/10/10 08:47:26;;;;;;;10.70;7.90;;;;;;;27.80;17.71;101634.02;112824;1212;138262;-80
2021/10/10 08:51:56;;;;;;;10.40;7.30;;;;;;;27.75;17.05;101640.09;111208;1218;95102;-79
2021/10/10 08:56:01;;;;;;;10.30;8.20;;;;;;;27.31;17.42;101634.94;111058;1215;137702;-79
2021/10/10 08:59:55;;;;;;;8.80;6.90;;;;;;;27.17;17.51;101624.14;110910;1219;137317;-79
2021/10/10 09:03:18;;;;;;;14.20;7.40;;;;;;;27.15;17.72;101629.11;111277;1218;109423;-80
2021/10/10 09:07:02;;;;;;;;;;;;;;;;;;;;;
2021/10/10 09:11:13;;;;;;;;;;;;;;;;;;;;;
2021/10/10 09:15:50;;;;;;;9.80;6.70;;;;;;;27.31;17.21;101626.41;111313;1216;94990;-81
2021/10/10 09:28:17;;;;;;;13.10;7.70;;;;;;;25.16;18.36;101626.87;111346;1209;109532;-80
2021/10/10 09:32:22;;;;;;;10.60;7.90;;;;;;;24.74;18.25;101624.27;111461;1212;137258;-79
2021/10/10 09:36:14;;;;;;;;;;;;;;;;;;;;;
2021/10/10 09:40:21;;;;;;;;;;;;;;;;;;;;;
2021/10/10 09:52:59;;;;;;;8.20;6.50;;;;;;;23.81;19.22;101616.77;111483;1214;94941;-79
2021/10/10 09:56:47;;;;;;;;;;;;;;;;;;;;;
2021/10/10 10:01:14;;;;;;;;;;;;;;;;;;;;;
2021/10/10 10:09:38;;;;;;;8.20;5.30;;;;;;;22.85;19.54;101606.54;111189;1216;137188;-79
2021/10/10 10:21:52;;;;;;;9.40;5.30;;;;;;;21.36;20.53;101604.67;110893;1219;137046;-80
2021/10/10 10:29:23;;;;;;;7.70;5.20;;;;;;;20.53;20.97;101598.52;111477;1209;635428;-79
2021/10/10 10:33:27;;;;;;;6.50;4.80;;;;;;;20.25;21.59;101599.39;112323;1203;136800;-80
2021/10/10 10:37:45;;;;;;;7.80;4.50;;;;;;;19.91;21.59;101600.80;112113;1206;94170;-80
2021/10/10 10:41:46;;;;;;;5.20;3.80;;;;;;;19.45;22.20;101597.14;112013;1203;136440;-80
2021/10/10 10:45:41;;;;;;;;;;;;;;;;;;;;;
2021/10/10 10:49:50;;;;;;;7.90;4.10;;;;;;;19.64;22.22;101592.39;112281;1203;106581;-80
2021/10/10 10:53:44;;;;;;;6.00;3.90;;;;;;;19.53;21.93;101594.66;111749;1207;136714;-80
2021/10/10 10:58:33;;;;;;;8.00;3.90;;;;;;;19.16;21.97;101585.28;111586;1209;137076;-80
2021/10/10 11:06:45;;;;;;;6.20;4.10;;;;;;;18.08;23.03;101591.83;111461;1215;109464;-80
2021/10/10 11:10:50;;;;;;;6.10;4.10;;;;;;;17.99;23.37;101588.52;111482;1211;137196;-80
2021/10/10 11:15:26;;;;;;;6.50;4.10;;;;;;;18.00;23.45;101579.15;111748;1207;95721;-80
2021/10/10 11:20:05;;;;;;;8.50;4.90;;;;;;;18.12;23.36;101576.86;111414;1209;638663;-79
2021/10/10 11:33:07;;;;;;;7.50;3.90;;;;;;;17.90;23.72;101564.98;113310;1209;106938;-79
2021/10/10 11:37:13;;;;;;;7.50;4.00;;;;;;;17.80;24.24;101558.70;113019;1213;136823;-79
2021/10/10 11:44:58;;;;;;;;;;;;;;;;;;;;;
2021/10/10 11:49:39;;;;;;;9.10;4.30;;;;;;;17.49;24.18;101547.79;111343;1216;136763;-78
2021/10/10 11:53:45;;;;;;;9.60;5.40;;;;;;;17.33;24.75;101540.71;111342;1215;137037;-79
2021/10/10 11:58:05;;;;;;;7.60;4.70;;;;;;;17.23;24.78;101535.46;111172;1219;109457;-79
2021/10/10 12:02:13;;;;;;;6.80;4.30;;;;;;;17.30;25.11;101529.05;111318;1214;107766;-80
2021/10/10 12:10:34;;;;;;;7.30;4.40;;;;;;;17.09;25.22;101525.14;111741;1209;94848;-80
2021/10/10 12:14:39;;;;;;;7.30;4.10;;;;;;;16.98;25.45;101515.70;111636;1212;110182;-79
2021/10/10 12:26:34;;;;;;;;;;;;;;;;;;;;;
2021/10/10 12:34:29;;;;;;;;;;;;;;;;;;;;;
2021/10/10 12:51:09;;;;;;;5.20;3.40;;;;;;;17.44;25.29;101484.17;111989;1204;136803;-79
2021/10/10 12:55:17;;;;;;;4.50;3.40;;;;;;;16.98;25.37;101491.11;111672;1212;108565;-80
2021/10/10 13:07:24;;;;;;;;;;;;;;;;;;;;;
2021/10/10 13:11:18;;;;;;;;;;;;;;;;;;;;;
2021/10/10 13:19:45;;;;;;;5.50;4.00;;;;;;;15.70;27.21;101461.53;110899;1221;95309;-79
2021/10/10 13:23:26;;;;;;;5.80;3.80;;;;;;;15.42;27.35;101461.56;111096;1218;95050;-80
2021/10/10 13:27:32;;;;;;;7.90;3.70;;;;;;;15.34;27.74;101455.86;111078;1218;136916;-79
2021/10/10 13:39:49;;;;;;;5.80;3.50;;;;;;;15.59;28.06;101446.10;110730;1223;137110;-79
2021/10/10 13:43:55;;;;;;;7.50;4.00;;;;;;;15.58;28.08;101440.16;110608;1224;94879;-80
2021/10/10 13:48:01;;;;;;;6.20;3.60;;;;;;;15.73;28.15;101431.96;110703;1221;137670;-79
2021/10/10 13:52:06;;;;;;;5.90;3.90;;;;;;;15.88;28.06;101431.80;110416;1225;137310;-79
2021/10/10 14:03:33;;;;;;;;;;;;;;;;;;;;;
2021/10/10 14:07:42;;;;;;;7.30;3.60;;;;;;;15.43;28.08;101430.67;112370;1203;94301;-79
2021/10/10 14:11:51;;;;;;;5.20;3.30;;;;;;;15.16;28.20;101426.33;112277;1202;136411;-81
2021/10/10 14:15:59;;;;;;;6.10;3.70;;;;;;;14.82;28.31;101428.45;113286;1205;136755;-80
2021/10/10 14:32:49;;;;;;;9.10;4.50;;;;;;;14.26;29.64;101415.04;112331;1218;92835;-81
2021/10/10 14:36:21;;;;;;;;;;;;;;;;;;;;;
2021/10/10 14:53:01;;;;;;;5.20;3.30;;;;;;;13.05;30.89;101402.98;111883;1207;136947;-78
